Main page
METAR-TAF:

METAR-TAF

Airports :

Tekirdağ Çorlu Airport

Çorlu, Turkey

latitude: 41-08N, longitude: 027-55E, elevation: 173 m

Current weather observation

The report was made 27 minutes ago, at 15:20 UTC
Wind 16 kt from the North
Temperature 16°C
Humidity 82%
Pressure 1018 hPa
Visibility 10 km or more
Broken clouds at a height of 3500 ft

METAR: LTBU 171520Z 01016KT 9999 BKN035 16/13 Q1018 RMK RWY23 02012KT

Time: 18:47 (15:47 UTC)

Forecast

The report was made 5 hours and 7 minutes ago, at 10:40 UTC
Forecast valid from 17 at 12 UTC to 18 at 12 UTC
Wind 13 kt from the North
Visibility 10 km or more
Scattered clouds at a height of 3000 ft
Broken clouds at a height of 9000 ft
Temporary
from 17 at 12 UTC to 17 at 16 UTC
Few clouds at a height of 1700 ft
Broken clouds at a height of 3200 ft
light rain showers

TAF: LTBU 171040Z 1712/1812 35013KT 9999 SCT030 BKN090 TEMPO 1712/1716 -SHRA FEW017 BKN032

Weather observations and forecasts of more than 4000 airports (METAR and TAF reports).

The available stations are represented by yellow and red dots on the map.

Hover mouse over dot to see the name of the station.

Then click to see weather observations and forecasts.

To change the map : click on the green buttons with a black cross to zoom in, on the green button with a dash to zoom out, or on the green arrows for adjacent maps.


METAR-TAF: